YMML

Melbourne International Airport

Melbourne, Australia
TAF YMML 182309Z 1900/2006 01020G34KT CAVOK FM190100 02015G25KT CAVOK FM190400 03014KT CAVOK FM191500 01017G34KT CAVOK FM191900 01022G42KT 9999 -SHRA NSC FM200400 02016G30KT 9999 SHRA SCT050 PROB30 INTER 2003/2006 VRB25G45KT 2000 TSRA BKN010 SCT050CB
Issued Valid From Valid To
Nov-18 @ 23:09 UTC
(2 hours ago)
Nov-19 @ 00:00 UTC
(an hour ago)
Nov-20 @ 06:00 UTC
(-1 days ago)
Expired Click to View Nov-19 @ 00:00 to Nov-19 @ 01:00
TAF YMML 182309Z 1900/2006 01020G34KT CAVOK
Wind Visibility Clouds Conditions
10° at 20 knots
 Gusting to 34 knots
10,000+ meters
  • No significant clouds
From Nov-19 @ 01:00 to Nov-19 @ 04:00
FM190100 02015G25KT CAVOK
Wind Visibility Clouds Conditions
20° at 15 knots
 Gusting to 25 knots
10,000+ meters
  • No significant clouds
From Nov-19 @ 04:00 to Nov-19 @ 15:00
FM190400 03014KT CAVOK
Wind Visibility Clouds Conditions
30° at 14 knots 10,000+ meters
  • No significant clouds
From Nov-19 @ 15:00 to Nov-19 @ 19:00
FM191500 01017G34KT CAVOK
Wind Visibility Clouds Conditions
10° at 17 knots
 Gusting to 34 knots
10,000+ meters
  • No significant clouds
From Nov-19 @ 19:00 to Nov-20 @ 04:00
FM191900 01022G42KT 9999 -SHRA NSC
Wind Visibility Clouds Conditions
10° at 22 knots
 Gusting to 42 knots
10,000+ meters
  • No significant clouds
  • Light Rain
Temporary  (Probability 30%) Nov-20 @ 03:00 to Nov-20 @ 06:00
PROB30 INTER 2003/2006 VRB25G45KT 2000 TSRA BKN010 SCT050CB
Wind Visibility Clouds Conditions
Variable at 25 knots
 Gusting to 45 knots
1,996 meters
  • Broken at 1,000' AGL
  • Scattered at 5,000' AGL
  • Thunderstorm
  • Rain
From Nov-20 @ 04:00 to Nov-20 @ 06:00
FM200400 02016G30KT 9999 SHRA SCT050
Wind Visibility Clouds Conditions
20° at 16 knots
 Gusting to 30 knots
10,000+ meters
  • Scattered at 5,000' AGL
  • Rain
TAF YMML 182309Z 1900/2006 01020G34KT CAVOK FM190100 02015G25KT CAVOK FM190400 03014KT CAVOK FM191500 01017G34KT CAVOK FM191900 01022G42KT 9999 -SHRA NSC FM200400 02016G30KT 9999 SHRA SCT050 PROB30 INTER 2003/2006 VRB25G45KT 2000 TSRA BKN010 SCT050CB
Issued Nov-18 @ 23:09 UTC
(2 hours ago)
Valid From Nov-19 @ 00:00 UTC
(an hour ago)
Valid To Nov-20 @ 06:00 UTC
(-1 days ago)
Nov-19 @ 00:00 - Nov-19 @ 01:00
Wind Visibility
10° at 20 knots
 Gusting to 34 knots
10,000+ meters
Clouds
  • No significant clouds
Conditions
From Nov-19 @ 01:00 - Nov-19 @ 04:00
Wind Visibility
20° at 15 knots
 Gusting to 25 knots
10,000+ meters
Clouds
  • No significant clouds
Conditions
From Nov-19 @ 04:00 - Nov-19 @ 15:00
Wind Visibility
30° at 14 knots 10,000+ meters
Clouds
  • No significant clouds
Conditions
From Nov-19 @ 15:00 - Nov-19 @ 19:00
Wind Visibility
10° at 17 knots
 Gusting to 34 knots
10,000+ meters
Clouds
  • No significant clouds
Conditions
From Nov-19 @ 19:00 - Nov-20 @ 04:00
Wind Visibility
10° at 22 knots
 Gusting to 42 knots
10,000+ meters
Clouds
  • No significant clouds
Conditions
  • Light Rain
Probability 30% Temporary Nov-20 @ 03:00 - Nov-20 @ 06:00
Wind Visibility
Variable at 25 knots
 Gusting to 45 knots
1,996 meters
Clouds
  • Broken at 1,000' AGL
  • Scattered at 5,000' AGL
Conditions
  • Thunderstorm
  • Rain
From Nov-20 @ 04:00 - Nov-20 @ 06:00
Wind Visibility
20° at 16 knots
 Gusting to 30 knots
10,000+ meters
Clouds
  • Scattered at 5,000' AGL
Conditions
  • Rain